Time;durP1;ratioP1;P1;durP2;ratioP2;P2;SDS_P1;SDS_P2;PMS_P1;PMS_P2;Temp;Humidity;BMP_temperature;BMP_pressure;BME280_temperature;BME280_humidity;BME280_pressure;Samples;Min_cycle;Max_cycle;Signal;HPM_P1;HPM_P2
2023/09/29 00:01:03;;;;;;;4.63;2.20;;;;;;;23.00;60.27;99239.44;5033882;28;20182;-88
2023/09/29 00:03:28;;;;;;;5.17;2.07;;;;;;;22.91;60.77;99237.69;5033993;28;20251;-87
2023/09/29 00:05:53;;;;;;;5.17;2.17;;;;;;;22.85;60.80;99238.31;5005605;28;20194;-87
2023/09/29 00:08:22;;;;;;;4.73;2.37;;;;;;;22.73;61.40;99239.56;5018792;28;20551;-87
2023/09/29 00:10:49;;;;;;;5.50;2.63;;;;;;;22.69;61.45;99240.88;5033709;28;20181;-87
2023/09/29 00:13:16;;;;;;;10.10;3.57;;;;;;;22.84;61.04;99231.28;5016142;28;20198;-87
2023/09/29 00:15:43;;;;;;;7.47;2.63;;;;;;;22.96;60.68;99230.03;5033706;28;20175;-87
2023/09/29 00:18:10;;;;;;;5.10;2.67;;;;;;;23.00;60.57;99231.41;5033593;28;20240;-87
2023/09/29 00:20:36;;;;;;;8.17;3.10;;;;;;;23.03;60.42;99231.94;5015971;28;20182;-87
2023/09/29 00:23:02;;;;;;;8.13;2.87;;;;;;;22.97;60.72;99232.56;5016873;28;20255;-87
2023/09/29 00:25:29;;;;;;;4.53;2.20;;;;;;;22.94;60.58;99227.53;5016423;28;20554;-87
2023/09/29 00:27:57;;;;;;;5.77;2.83;;;;;;;22.91;60.67;99227.84;5016011;28;20649;-87
2023/09/29 00:30:23;;;;;;;5.73;2.73;;;;;;;22.98;60.59;99230.75;5021905;28;20199;-87
2023/09/29 00:32:51;;;;;;;6.83;2.30;;;;;;;22.95;60.68;99239.06;4996271;28;20270;-87
2023/09/29 00:35:24;;;;;;;6.27;2.27;;;;;;;22.74;61.04;99230.56;5021043;28;20193;-87
2023/09/29 00:37:51;;;;;;;5.10;2.60;;;;;;;22.86;60.53;99234.66;5033666;28;20522;-87
2023/09/29 00:40:18;;;;;;;5.30;2.53;;;;;;;22.80;61.22;99240.63;5015721;28;20190;-87
2023/09/29 00:42:46;;;;;;;9.30;2.87;;;;;;;22.85;60.85;99243.69;5033798;28;20209;-87
2023/09/29 00:45:16;;;;;;;6.67;2.80;;;;;;;22.73;60.80;99240.41;5033216;28;20170;-87
2023/09/29 00:47:45;;;;;;;8.20;2.20;;;;;;;22.68;61.29;99234.69;5015911;28;20548;-87
2023/09/29 00:50:14;;;;;;;6.90;2.80;;;;;;;22.77;60.68;99246.28;5033468;28;20213;-87
2023/09/29 00:52:42;;;;;;;7.67;2.33;;;;;;;22.67;61.08;99233.00;5015660;28;20182;-87
2023/09/29 00:55:16;;;;;;;4.33;2.50;;;;;;;22.51;61.23;99236.31;5015414;28;20259;-88
2023/09/29 00:57:47;;;;;;;6.23;2.50;;;;;;;22.42;61.67;99239.09;5016422;28;20617;-87
2023/09/29 01:00:37;;;;;;;11.00;3.13;;;;;;;22.42;61.37;99231.91;5015442;28;20191;-87
2023/09/29 01:03:06;;;;;;;8.20;2.53;;;;;;;22.56;60.89;99225.22;5032588;28;20194;-87
2023/09/29 01:05:39;;;;;;;5.00;2.10;;;;;;;22.54;60.97;99229.84;5015815;28;20182;-89
2023/09/29 01:08:09;;;;;;;6.57;2.50;;;;;;;22.60;60.40;99232.75;5032739;28;20205;-88
2023/09/29 01:10:41;;;;;;;6.43;2.30;;;;;;;22.66;59.56;99233.16;5032997;28;20187;-87
2023/09/29 01:13:08;;;;;;;4.43;2.43;;;;;;;22.66;59.73;99231.31;5032812;28;20190;-87
2023/09/29 01:15:35;;;;;;;3.20;1.90;;;;;;;22.69;59.64;99230.19;5016317;28;20554;-87
2023/09/29 01:18:02;;;;;;;3.83;1.83;;;;;;;22.61;59.51;99228.25;5015547;28;20174;-87
2023/09/29 01:20:29;;;;;;;4.17;1.90;;;;;;;22.61;59.88;99226.38;5015939;28;20186;-89
2023/09/29 01:23:00;;;;;;;4.87;2.23;;;;;;;22.56;59.96;99225.22;5015502;28;20186;-87
2023/09/29 01:25:26;;;;;;;6.90;2.13;;;;;;;22.60;59.47;99230.06;5032666;28;20174;-87
2023/09/29 01:27:52;;;;;;;4.70;1.93;;;;;;;22.53;59.82;99223.69;4995703;28;20179;-87
2023/09/29 01:30:19;;;;;;;8.70;2.47;;;;;;;22.53;59.68;99226.34;4996094;28;20341;-87
2023/09/29 01:32:50;;;;;;;6.47;2.37;;;;;;;22.56;59.55;99225.22;5028375;28;20243;-87
2023/09/29 01:35:23;;;;;;;8.87;3.03;;;;;;;22.54;59.80;99220.00;5016226;28;20239;-88
2023/09/29 01:37:51;;;;;;;4.07;2.13;;;;;;;22.50;59.89;99223.13;5032845;28;20512;-88
2023/09/29 01:40:20;;;;;;;5.60;2.50;;;;;;;22.39;60.65;99226.88;5032709;28;20178;-87
2023/09/29 01:42:49;;;;;;;6.67;2.93;;;;;;;22.34;60.44;99231.84;5034656;28;20182;-87
2023/09/29 01:45:16;;;;;;;9.87;2.50;;;;;;;22.51;60.34;99222.97;5036696;28;20186;-88
2023/09/29 01:47:46;;;;;;;4.17;2.23;;;;;;;22.62;59.84;99227.25;5018627;28;20656;-87
2023/09/29 01:50:15;;;;;;;3.63;1.93;;;;;;;22.61;59.71;99223.72;5018720;28;20201;-87
2023/09/29 01:52:43;;;;;;;4.87;2.20;;;;;;;22.61;59.62;99226.38;5036864;28;20206;-87
2023/09/29 01:55:14;;;;;;;6.93;3.13;;;;;;;22.64;59.69;99225.31;5036261;28;20569;-88
2023/09/29 01:57:42;;;;;;;8.17;2.20;;;;;;;22.54;59.66;99217.31;5036367;28;20554;-88
2023/09/29 02:00:23;;;;;;;8.27;2.17;;;;;;;22.58;59.46;99221.38;5036162;28;20175;-87
2023/09/29 02:02:50;;;;;;;6.90;2.50;;;;;;;22.56;59.59;99220.69;5036521;28;20167;-89
2023/09/29 02:05:17;;;;;;;6.57;2.40;;;;;;;22.58;59.59;99221.38;5018741;28;20182;-88
2023/09/29 02:07:44;;;;;;;7.47;2.50;;;;;;;22.62;59.17;99217.44;5035844;28;20186;-88
2023/09/29 02:10:11;;;;;;;6.20;3.43;;;;;;;22.64;59.06;99218.09;5016189;28;20210;-87
2023/09/29 02:12:46;;;;;;;4.03;2.20;;;;;;;22.64;58.98;99215.44;5004092;28;20184;-87
2023/09/29 02:15:17;;;;;;;5.33;2.90;;;;;;;22.69;58.92;99223.00;5036005;28;20169;-87
2023/09/29 02:17:45;;;;;;;7.87;2.80;;;;;;;22.67;58.52;99224.16;5018178;28;20193;-87
2023/09/29 02:20:14;;;;;;;7.27;2.80;;;;;;;22.64;58.67;99222.63;5018563;28;20182;-87
2023/09/29 02:22:44;;;;;;;9.60;2.83;;;;;;;22.55;59.12;99215.50;5018680;28;20277;-87
2023/09/29 02:25:11;;;;;;;4.17;2.40;;;;;;;22.54;59.13;99220.00;5035791;28;20611;-87
2023/09/29 02:27:37;;;;;;;8.00;2.40;;;;;;;22.57;59.03;99214.34;5018508;28;20178;-87
2023/09/29 02:30:04;;;;;;;8.07;2.83;;;;;;;22.54;58.87;99217.31;5032260;28;20195;-88
2023/09/29 02:32:34;;;;;;;6.87;3.17;;;;;;;22.58;58.96;99209.84;4998842;28;20682;-87
2023/09/29 02:35:01;;;;;;;6.60;2.83;;;;;;;22.60;58.71;99214.03;5015804;28;20217;-87
2023/09/29 02:37:27;;;;;;;7.53;2.13;;;;;;;22.59;58.61;99216.84;4999293;28;20171;-88
2023/09/29 02:39:54;;;;;;;4.20;2.10;;;;;;;22.55;58.93;99207.47;5016005;28;20309;-87
2023/09/29 02:42:20;;;;;;;4.60;2.20;;;;;;;22.60;58.74;99216.72;5015923;28;20542;-88
2023/09/29 02:44:45;;;;;;;4.23;2.27;;;;;;;22.59;58.95;99212.34;5015527;28;20647;-87
2023/09/29 02:47:11;;;;;;;3.77;1.93;;;;;;;22.60;58.62;99213.19;5015522;28;20190;-87
2023/09/29 02:49:36;;;;;;;9.50;3.27;;;;;;;22.58;58.62;99209.84;5015432;28;20278;-88
2023/09/29 02:52:04;;;;;;;8.20;2.70;;;;;;;22.55;59.13;99216.34;4998243;28;20221;-88
2023/09/29 02:54:30;;;;;;;4.07;2.43;;;;;;;22.64;58.51;99215.44;5014675;28;20544;-88
2023/09/29 02:56:56;;;;;;;5.70;2.77;;;;;;;22.68;57.79;99215.13;5015474;28;20652;-88
2023/09/29 02:59:24;;;;;;;7.60;2.80;;;;;;;22.61;58.56;99209.53;5035093;28;20178;-87
2023/09/29 03:01:51;;;;;;;10.63;3.20;;;;;;;22.57;58.60;99217.03;5035283;28;20186;-87
2023/09/29 03:04:17;;;;;;;10.23;2.90;;;;;;;22.57;58.40;99217.03;5034766;28;20267;-87
2023/09/29 03:06:43;;;;;;;5.30;2.33;;;;;;;22.59;58.10;99211.50;5034894;28;20731;-87
2023/09/29 03:09:13;;;;;;;5.77;2.43;;;;;;;22.55;58.09;99211.00;5017056;28;20198;-87
2023/09/29 03:11:40;;;;;;;6.97;2.57;;;;;;;22.66;58.15;99211.78;5027307;28;20269;-88
2023/09/29 03:14:07;;;;;;;5.60;2.40;;;;;;;22.64;57.32;99209.28;5018225;28;20252;-88
2023/09/29 03:16:37;;;;;;;5.07;1.97;;;;;;;22.60;57.58;99213.19;5034727;28;20190;-87
2023/09/29 03:19:03;;;;;;;4.43;2.47;;;;;;;22.58;57.47;99208.03;5034639;28;20174;-88
2023/09/29 03:21:30;;;;;;;8.27;2.50;;;;;;;22.60;57.58;99210.53;5034704;28;20631;-87
2023/09/29 03:23:56;;;;;;;4.23;2.20;;;;;;;22.70;57.13;99207.78;5034999;28;20686;-87
2023/09/29 03:26:23;;;;;;;6.13;2.50;;;;;;;22.68;57.48;99207.09;5034635;28;20185;-87
2023/09/29 03:28:50;;;;;;;6.90;2.77;;;;;;;22.71;56.59;99207.66;5017034;28;20198;-88
2023/09/29 03:31:18;;;;;;;5.77;2.17;;;;;;;22.63;56.79;99208.44;5016568;28;20214;-88
2023/09/29 03:33:43;;;;;;;4.93;2.10;;;;;;;22.69;56.53;99206.13;5017335;28;20174;-87
2023/09/29 03:36:09;;;;;;;4.80;2.13;;;;;;;22.54;56.89;99206.63;5016752;28;20182;-88
2023/09/29 03:38:36;;;;;;;3.50;1.73;;;;;;;22.45;57.68;99199.56;5034183;28;20682;-87
2023/09/29 03:41:06;;;;;;;5.20;2.57;;;;;;;22.51;56.90;99209.63;5016815;28;20182;-87
2023/09/29 03:43:32;;;;;;;6.27;2.23;;;;;;;22.55;56.29;99200.31;5016829;28;20228;-88
2023/09/29 03:45:58;;;;;;;5.60;2.50;;;;;;;22.56;56.68;99201.16;5016890;28;20273;-87
2023/09/29 03:48:25;;;;;;;4.00;1.90;;;;;;;22.51;56.79;99208.78;5033932;28;20285;-88
2023/09/29 03:50:54;;;;;;;4.77;1.87;;;;;;;22.40;56.44;99206.34;5034245;28;20178;-88
2023/09/29 03:53:21;;;;;;;7.13;2.13;;;;;;;22.44;56.42;99208.56;5034068;28;20216;-87
2023/09/29 03:55:47;;;;;;;9.20;2.03;;;;;;;22.55;56.15;99200.31;5016557;28;20596;-88
2023/09/29 03:58:16;;;;;;;5.07;2.07;;;;;;;22.38;56.27;99203.00;5034178;28;20208;-88
2023/09/29 04:00:41;;;;;;;4.10;2.23;;;;;;;22.28;56.85;99204.88;5016383;28;20178;-87
2023/09/29 04:03:08;;;;;;;7.07;2.03;;;;;;;22.36;56.72;99205.81;5033920;28;20188;-87
2023/09/29 04:05:35;;;;;;;5.97;2.53;;;;;;;22.49;56.13;99203.59;5033625;28;20261;-87
2023/09/29 04:08:01;;;;;;;6.20;2.23;;;;;;;22.60;55.50;99208.69;5034155;28;20197;-87
2023/09/29 04:10:28;;;;;;;5.77;2.30;;;;;;;22.45;56.13;99204.06;5016394;28;20631;-88
2023/09/29 04:12:53;;;;;;;3.40;1.60;;;;;;;22.45;55.87;99194.22;5032952;28;20186;-87
2023/09/29 04:15:20;;;;;;;6.30;2.20;;;;;;;22.46;55.87;99190.53;5028822;28;20710;-87
2023/09/29 04:17:46;;;;;;;4.13;1.87;;;;;;;22.49;55.58;99195.56;5032685;28;20223;-87
2023/09/29 04:20:13;;;;;;;6.83;2.07;;;;;;;22.39;56.03;99192.16;5032891;28;20174;-87
2023/09/29 04:22:40;;;;;;;8.30;1.97;;;;;;;22.42;55.91;99189.19;5034157;28;20228;-87
2023/09/29 04:25:10;;;;;;;5.10;1.83;;;;;;;22.54;55.19;99195.94;5015643;28;20632;-87
2023/09/29 04:27:38;;;;;;;5.37;1.67;;;;;;;22.49;55.05;99190.22;5033529;28;20209;-87
2023/09/29 04:30:06;;;;;;;6.17;2.63;;;;;;;22.50;54.83;99201.75;5033070;28;20263;-87
2023/09/29 04:32:33;;;;;;;10.03;2.77;;;;;;;22.45;55.53;99194.22;5016039;28;20189;-89
2023/09/29 04:34:59;;;;;;;8.53;2.07;;;;;;;22.42;55.01;99194.53;5016163;28;20531;-87
2023/09/29 04:37:25;;;;;;;5.27;1.63;;;;;;;22.47;55.36;99189.56;5015884;28;20276;-87
2023/09/29 04:39:52;;;;;;;7.63;2.23;;;;;;;22.54;54.71;99197.78;5033049;28;20265;-87
2023/09/29 04:42:18;;;;;;;3.63;1.63;;;;;;;22.59;54.68;99196.31;5033329;28;20182;-88
2023/09/29 04:44:43;;;;;;;5.73;1.87;;;;;;;22.64;54.47;99198.59;5015753;28;20519;-87
2023/09/29 04:47:09;;;;;;;9.90;2.57;;;;;;;22.64;54.28;99194.06;5015574;28;20189;-89
2023/09/29 04:49:36;;;;;;;3.53;1.57;;;;;;;22.60;54.34;99202.50;5015749;28;20655;-87
2023/09/29 04:52:01;;;;;;;8.57;1.90;;;;;;;22.72;53.90;99197.81;5016190;28;20614;-87
2023/09/29 04:54:28;;;;;;;6.80;1.77;;;;;;;22.73;53.78;99207.47;5015783;28;20186;-88
2023/09/29 04:56:53;;;;;;;6.17;2.20;;;;;;;22.63;54.26;99197.75;5016196;28;20567;-87
2023/09/29 04:59:20;;;;;;;5.57;1.83;;;;;;;22.66;54.43;99211.78;5015249;28;20662;-87
2023/09/29 05:01:47;;;;;;;4.13;1.80;;;;;;;22.56;54.79;99204.63;5016038;28;20182;-87
2023/09/29 05:04:13;;;;;;;7.10;2.10;;;;;;;22.71;54.19;99214.81;5032902;28;20569;-87
2023/09/29 05:06:38;;;;;;;3.57;1.80;;;;;;;22.59;54.31;99207.00;5015505;28;20188;-88
2023/09/29 05:09:05;;;;;;;4.50;1.90;;;;;;;22.69;54.25;99212.31;5016738;28;20216;-88
2023/09/29 05:11:31;;;;;;;3.40;1.63;;;;;;;22.76;54.36;99208.03;5015471;28;20189;-88
2023/09/29 05:13:58;;;;;;;7.97;3.80;;;;;;;22.66;54.34;99211.78;5032867;28;20538;-89
2023/09/29 05:16:25;;;;;;;3.80;1.80;;;;;;;22.63;54.38;99208.44;5016615;28;20233;-88
2023/09/29 05:18:53;;;;;;;3.17;1.53;;;;;;;22.70;53.98;99213.97;5036484;28;20182;-88
2023/09/29 05:21:18;;;;;;;7.13;2.23;;;;;;;22.79;54.13;99214.88;5036513;28;20243;-89
2023/09/29 05:23:45;;;;;;;5.30;1.63;;;;;;;22.96;53.48;99214.00;5020963;28;20186;-87
2023/09/29 05:26:10;;;;;;;6.57;1.93;;;;;;;23.14;52.74;99220.13;5051702;28;20248;-88
2023/09/29 05:28:38;;;;;;;3.87;1.90;;;;;;;23.36;51.86;99219.59;5019577;28;20206;-87
2023/09/29 05:31:04;;;;;;;4.07;1.63;;;;;;;23.50;51.68;99216.38;5036708;28;20253;-88
2023/09/29 05:33:31;;;;;;;6.77;2.00;;;;;;;23.76;50.13;99213.63;5036388;28;20609;-88
2023/09/29 05:35:58;;;;;;;6.23;1.87;;;;;;;24.02;49.89;99213.53;5018835;28;20547;-88
2023/09/29 05:38:25;;;;;;;10.70;2.17;;;;;;;24.16;50.10;99215.59;5037020;28;20182;-87
2023/09/29 05:40:52;;;;;;;3.57;1.93;;;;;;;24.33;49.05;99223.50;5036345;28;20179;-87
2023/09/29 05:43:19;;;;;;;4.87;1.67;;;;;;;24.47;49.10;99223.84;5036443;28;20173;-87
2023/09/29 05:45:45;;;;;;;7.23;2.07;;;;;;;24.36;48.79;99233.03;5018715;28;20288;-87
2023/09/29 05:48:12;;;;;;;9.63;1.87;;;;;;;24.35;49.01;99228.69;5019189;28;20695;-88
2023/09/29 05:50:38;;;;;;;2.77;1.53;;;;;;;24.42;48.65;99230.53;5018580;28;20635;-88
2023/09/29 05:53:05;;;;;;;7.03;2.30;;;;;;;24.29;48.90;99224.00;5018913;28;20193;-87
2023/09/29 05:55:32;;;;;;;8.77;1.77;;;;;;;24.19;49.35;99232.16;5018701;28;20590;-87
2023/09/29 05:57:57;;;;;;;7.07;1.90;;;;;;;24.19;49.26;99223.28;5018884;28;20703;-87
2023/09/29 06:00:25;;;;;;;3.97;2.00;;;;;;;24.08;50.05;99228.94;5036108;28;20194;-88
2023/09/29 06:02:53;;;;;;;4.77;1.87;;;;;;;24.21;49.70;99229.34;5018553;28;20178;-88
2023/09/29 06:05:20;;;;;;;7.57;2.27;;;;;;;24.29;49.57;99232.03;5035773;28;20186;-88
2023/09/29 06:08:23;;;;;;;;;;;;;;;;;;;;;
2023/09/29 06:10:51;;;;;;;4.10;1.70;;;;;;;24.35;48.79;99239.41;5036492;28;20162;-87
2023/09/29 06:13:18;;;;;;;5.90;2.00;;;;;;;24.44;48.95;99241.09;5035966;28;20251;-87
2023/09/29 06:15:44;;;;;;;4.73;2.23;;;;;;;24.53;49.33;99245.44;5035808;28;20258;-88
2023/09/29 06:18:10;;;;;;;5.17;1.93;;;;;;;24.66;49.47;99245.78;5035980;28;20170;-87
2023/09/29 06:20:37;;;;;;;7.87;2.30;;;;;;;24.81;48.91;99246.84;5035859;28;20174;-87
2023/09/29 06:23:04;;;;;;;4.50;1.97;;;;;;;24.87;48.70;99245.31;5018002;28;20221;-87
2023/09/29 06:25:31;;;;;;;6.17;1.63;;;;;;;25.05;48.48;99254.03;5035711;28;20244;-88
2023/09/29 06:27:57;;;;;;;4.70;1.83;;;;;;;25.16;48.54;99252.84;5035112;28;20209;-87
2023/09/29 06:30:24;;;;;;;5.77;2.30;;;;;;;25.29;48.16;99253.97;5024834;28;20267;-87
2023/09/29 06:32:51;;;;;;;3.97;1.90;;;;;;;25.40;48.91;99260.81;4998758;28;20217;-87
2023/09/29 06:35:18;;;;;;;3.50;2.07;;;;;;;25.66;48.82;99261.44;5032454;28;20240;-88
2023/09/29 06:37:44;;;;;;;4.60;2.20;;;;;;;25.88;47.79;99255.34;5035445;28;20178;-87
2023/09/29 06:40:11;;;;;;;8.27;2.20;;;;;;;26.07;46.80;99260.25;5035432;28;20185;-88
2023/09/29 06:42:37;;;;;;;6.87;2.30;;;;;;;26.31;46.80;99258.50;5017715;28;20174;-87
2023/09/29 06:45:06;;;;;;;8.03;2.20;;;;;;;26.37;46.29;99257.78;5035774;28;20178;-87
2023/09/29 06:47:31;;;;;;;3.70;1.70;;;;;;;26.52;45.79;99261.38;5034669;28;20186;-87
2023/09/29 06:49:58;;;;;;;7.27;2.53;;;;;;;26.58;45.75;99255.28;5035379;28;20198;-88
2023/09/29 06:52:25;;;;;;;4.97;1.80;;;;;;;26.62;45.29;99257.44;5034980;28;20206;-88
2023/09/29 06:54:52;;;;;;;7.63;2.50;;;;;;;26.71;45.39;99253.66;5017994;28;20616;-87
2023/09/29 06:57:17;;;;;;;5.57;2.03;;;;;;;26.83;44.94;99251.44;5035283;28;20229;-88
2023/09/29 06:59:44;;;;;;;5.37;1.43;;;;;;;26.98;45.45;99254.97;5017557;28;20186;-88
2023/09/29 07:02:09;;;;;;;4.67;1.83;;;;;;;27.24;44.56;99257.25;5017451;28;20194;-88
2023/09/29 07:04:36;;;;;;;4.77;2.23;;;;;;;27.31;44.39;99260.88;5034926;28;20774;-87
2023/09/29 07:07:01;;;;;;;4.97;2.27;;;;;;;27.38;43.16;99259.94;5034739;28;20187;-88
2023/09/29 07:09:28;;;;;;;5.73;2.00;;;;;;;27.43;42.59;99262.97;5017337;28;20268;-88
2023/09/29 07:11:54;;;;;;;5.00;1.57;;;;;;;27.28;43.77;99258.56;5034645;28;20620;-88
2023/09/29 07:14:19;;;;;;;4.07;1.80;;;;;;;27.40;42.87;99255.28;5034718;28;20185;-88
2023/09/29 07:16:49;;;;;;;5.40;1.80;;;;;;;27.47;42.00;99252.66;5015163;28;20212;-88
2023/09/29 07:19:16;;;;;;;4.57;1.57;;;;;;;27.54;40.94;99255.47;5016290;28;20212;-88
2023/09/29 07:21:43;;;;;;;9.70;2.17;;;;;;;27.70;42.27;99256.09;5017214;28;20181;-88
2023/09/29 07:24:10;;;;;;;6.50;1.70;;;;;;;27.95;41.18;99253.94;5034302;28;20178;-89
2023/09/29 07:26:35;;;;;;;4.57;1.83;;;;;;;28.18;40.45;99253.81;5034392;28;20189;-88
2023/09/29 07:29:04;;;;;;;2.65;1.35;;;;;;;28.32;39.20;99253.78;5034477;28;20202;-88
2023/09/29 07:31:35;;;;;;;9.15;2.40;;;;;;;28.41;39.53;99254.50;5017012;28;20210;-88
2023/09/29 07:34:02;;;;;;;8.05;1.80;;;;;;;28.56;37.25;99264.19;5017251;28;20182;-88
2023/09/29 07:36:30;;;;;;;5.28;2.05;;;;;;;28.40;37.93;99269.84;5034181;28;20624;-89
2023/09/29 07:38:58;;;;;;;10.32;2.08;;;;;;;28.16;37.43;99269.34;5034418;28;20175;-90
2023/09/29 07:41:24;;;;;;;5.22;1.85;;;;;;;28.04;37.09;99274.38;5033939;28;20182;-89
2023/09/29 07:43:52;;;;;;;12.50;1.83;;;;;;;28.15;38.43;99278.44;5034071;28;20271;-88
2023/09/29 07:46:18;;;;;;;8.70;2.03;;;;;;;28.41;37.27;99276.91;5016480;28;20533;-89
2023/09/29 07:48:45;;;;;;;6.22;1.40;;;;;;;28.51;37.05;99271.22;5034187;28;20202;-90
2023/09/29 07:51:10;;;;;;;10.20;1.75;;;;;;;28.49;36.88;99284.88;5016535;28;20675;-89
2023/09/29 07:53:37;;;;;;;7.18;1.73;;;;;;;28.69;36.86;99284.28;5034093;28;20188;-89
2023/09/29 07:56:02;;;;;;;4.45;2.17;;;;;;;28.75;36.00;99280.84;5033723;28;20175;-89
2023/09/29 07:58:28;;;;;;;4.93;1.95;;;;;;;28.68;36.49;99291.53;5033923;28;20643;-89
2023/09/29 08:00:54;;;;;;;7.13;1.90;;;;;;;28.74;37.11;99293.47;5016559;28;20191;-89
2023/09/29 08:03:21;;;;;;;6.63;1.88;;;;;;;29.01;36.28;99289.16;5034208;28;20174;-89
2023/09/29 08:05:49;;;;;;;6.28;1.83;;;;;;;29.17;34.75;99299.66;5023640;28;20175;-90
2023/09/29 08:08:15;;;;;;;5.28;1.80;;;;;;;29.35;34.54;99297.34;5028253;28;20201;-89
2023/09/29 08:10:42;;;;;;;7.32;1.85;;;;;;;29.34;34.28;99293.00;5033630;28;20170;-90
2023/09/29 08:13:09;;;;;;;6.70;1.70;;;;;;;29.39;34.00;99292.41;5033637;28;20190;-89
2023/09/29 08:15:35;;;;;;;7.00;2.15;;;;;;;29.56;34.44;99302.69;5033670;28;20257;-90
2023/09/29 08:18:02;;;;;;;7.22;1.70;;;;;;;29.72;33.16;99299.69;5033665;28;20261;-89
2023/09/29 08:20:29;;;;;;;3.53;1.40;;;;;;;29.92;34.75;99307.09;5016273;28;20206;-89
2023/09/29 08:22:56;;;;;;;5.22;1.98;;;;;;;30.10;31.53;99312.81;5033404;28;20214;-90
2023/09/29 08:25:23;;;;;;;20.75;2.40;;;;;;;30.22;32.84;99303.06;5034131;28;20188;-91
2023/09/29 08:27:48;;;;;;;6.53;1.67;;;;;;;30.30;33.88;99297.50;5031358;28;20204;-90
2023/09/29 08:30:16;;;;;;;4.65;1.60;;;;;;;30.39;31.88;99301.72;5033276;28;20625;-90
2023/09/29 08:32:43;;;;;;;5.00;2.08;;;;;;;30.51;32.68;99297.38;5015842;28;20174;-90
2023/09/29 08:35:16;;;;;;;10.82;2.10;;;;;;;30.65;30.80;99285.56;5015520;28;20257;-89
2023/09/29 08:37:43;;;;;;;7.43;1.95;;;;;;;30.75;31.44;99277.88;5033739;28;20177;-90
2023/09/29 08:40:09;;;;;;;7.10;1.98;;;;;;;30.92;32.08;99286.47;5027093;28;20274;-90
2023/09/29 08:42:39;;;;;;;5.10;1.88;;;;;;;31.08;31.30;99279.81;5013862;28;20175;-89
2023/09/29 08:45:11;;;;;;;4.35;1.73;;;;;;;31.20;31.27;99278.13;5020339;28;20214;-89
2023/09/29 08:47:40;;;;;;;5.97;2.30;;;;;;;31.33;31.00;99275.41;5032962;28;20182;-89
2023/09/29 08:50:08;;;;;;;4.68;1.65;;;;;;;31.41;28.40;99275.19;5032955;28;20298;-90
2023/09/29 08:52:36;;;;;;;7.88;2.53;;;;;;;31.52;29.48;99280.84;5032261;28;20177;-90
2023/09/29 08:55:03;;;;;;;4.65;2.10;;;;;;;31.49;29.54;99280.44;5032864;28;20174;-90
2023/09/29 08:57:30;;;;;;;12.40;2.40;;;;;;;31.42;29.48;99276.88;5032699;28;20229;-89
2023/09/29 09:00:00;;;;;;;3.78;1.42;;;;;;;31.34;28.02;99291.44;5033349;28;20196;-90
2023/09/29 09:02:26;;;;;;;5.00;1.95;;;;;;;31.43;28.74;99286.66;5015612;28;20178;-90
2023/09/29 09:04:52;;;;;;;6.28;1.65;;;;;;;31.61;28.99;99287.69;5033390;28;20185;-89
2023/09/29 09:07:22;;;;;;;7.45;2.17;;;;;;;31.70;28.24;99285.59;5032656;28;20589;-89
2023/09/29 09:09:55;;;;;;;5.15;1.67;;;;;;;31.61;27.47;99284.16;5032709;28;20213;-88
2023/09/29 09:12:39;;;;;;;6.13;1.98;;;;;;;31.74;29.23;99291.41;5015519;28;20248;-89
2023/09/29 09:15:07;;;;;;;5.38;1.73;;;;;;;31.88;29.44;99285.75;5032566;28;20240;-88
2023/09/29 09:17:35;;;;;;;3.70;1.33;;;;;;;31.99;29.11;99289.69;5015423;28;20182;-89
2023/09/29 09:20:02;;;;;;;8.65;1.35;;;;;;;31.95;28.12;99283.84;5015732;28;20174;-88
2023/09/29 09:22:32;;;;;;;4.00;1.73;;;;;;;32.14;27.50;99290.28;5032874;28;20210;-89
2023/09/29 09:25:04;;;;;;;5.78;1.70;;;;;;;32.20;27.23;99284.84;5032580;28;20213;-89
2023/09/29 09:27:41;;;;;;;2.60;1.33;;;;;;;32.25;28.06;99292.31;5013169;28;20267;-89
2023/09/29 09:30:21;;;;;;;2.38;1.20;;;;;;;32.29;28.22;99279.13;5013259;28;20190;-88
2023/09/29 09:32:47;;;;;;;7.93;1.85;;;;;;;32.28;29.55;99282.91;5013038;28;20167;-88
2023/09/29 09:35:24;;;;;;;5.18;1.45;;;;;;;32.34;29.00;99292.91;5022131;28;20175;-88
2023/09/29 09:37:51;;;;;;;4.93;1.85;;;;;;;32.51;26.85;99281.31;5032883;28;20617;-88
2023/09/29 09:40:19;;;;;;;6.53;1.60;;;;;;;32.44;27.45;99287.84;5032450;28;20182;-88
2023/09/29 09:42:47;;;;;;;11.35;1.60;;;;;;;32.44;28.03;99285.97;5032781;28;20636;-88
2023/09/29 09:45:14;;;;;;;3.85;1.38;;;;;;;32.39;26.93;99279.53;5032091;28;20719;-89
2023/09/29 09:47:41;;;;;;;5.20;1.92;;;;;;;32.38;28.90;99281.41;5034120;28;20592;-89
2023/09/29 09:50:11;;;;;;;7.55;2.17;;;;;;;32.47;28.26;99284.69;5051524;28;20194;-89
2023/09/29 09:52:39;;;;;;;4.35;1.30;;;;;;;32.38;28.25;99284.13;5032085;28;20189;-89
2023/09/29 09:55:10;;;;;;;4.85;1.70;;;;;;;32.44;29.21;99283.25;5032384;28;20256;-89
2023/09/29 09:57:38;;;;;;;3.40;1.55;;;;;;;32.51;28.96;99272.34;5031668;28;20233;-88
2023/09/29 10:00:10;;;;;;;4.88;1.70;;;;;;;32.40;29.50;99282.00;5032346;28;20206;-87
2023/09/29 10:02:47;;;;;;;7.40;1.65;;;;;;;32.43;29.95;99278.03;5032350;28;20210;-89
2023/09/29 10:05:16;;;;;;;10.18;1.85;;;;;;;32.57;28.59;99282.38;5018529;28;20608;-89
2023/09/29 10:07:55;;;;;;;3.80;1.90;;;;;;;32.56;29.35;99275.28;5035573;28;20244;-89
2023/09/29 10:10:41;;;;;;;4.43;2.00;;;;;;;32.67;28.83;99270.00;5036895;28;20167;-88
2023/09/29 10:13:11;;;;;;;5.05;1.65;;;;;;;32.85;28.53;99271.94;5018489;28;20259;-89
2023/09/29 10:15:40;;;;;;;4.13;1.48;;;;;;;32.89;28.55;99264.19;5035826;28;20236;-88
2023/09/29 10:18:20;;;;;;;9.40;1.83;;;;;;;33.06;28.71;99263.44;5035765;28;20278;-89
2023/09/29 10:20:55;;;;;;;6.22;1.58;;;;;;;32.75;29.26;99258.88;5035598;28;20182;-91
2023/09/29 10:23:25;;;;;;;3.90;1.60;;;;;;;32.66;30.00;99264.75;5036374;28;20248;-89
2023/09/29 10:25:58;;;;;;;5.88;1.27;;;;;;;32.77;29.92;99255.91;5035855;28;20178;-90
2023/09/29 10:28:35;;;;;;;6.97;2.15;;;;;;;32.75;30.73;99247.16;5015966;28;20230;-89
2023/09/29 10:31:13;;;;;;;3.75;1.77;;;;;;;32.81;30.59;99248.97;5018764;28;20186;-89
2023/09/29 10:36:55;;;;;;;8.60;1.45;;;;;;;32.44;31.09;99239.84;5024475;28;20555;-89
2023/09/29 10:39:29;;;;;;;4.22;1.63;;;;;;;32.30;31.70;99235.53;5035370;28;20178;-88
2023/09/29 10:42:12;;;;;;;3.30;1.73;;;;;;;32.45;31.34;99235.22;5035488;28;20206;-89
2023/09/29 10:44:55;;;;;;;9.63;2.50;;;;;;;32.42;31.98;99222.06;5032472;28;20201;-88
2023/09/29 10:47:37;;;;;;;5.30;1.45;;;;;;;32.58;31.11;99217.00;5005160;28;20548;-88
2023/09/29 10:50:11;;;;;;;10.60;1.55;;;;;;;32.82;30.87;99223.50;5017622;28;20578;-88
2023/09/29 10:52:40;;;;;;;8.50;1.95;;;;;;;32.88;31.91;99214.47;5035545;28;20170;-90
2023/09/29 10:55:05;;;;;;;3.58;1.90;;;;;;;33.12;30.77;99221.81;5033924;28;20228;-87
2023/09/29 10:57:33;;;;;;;4.47;2.00;;;;;;;33.18;31.18;99211.91;5015193;28;20234;-88
2023/09/29 11:00:05;;;;;;;7.55;1.45;;;;;;;33.36;29.60;99218.22;5015340;28;20179;-89
2023/09/29 11:02:34;;;;;;;4.38;1.75;;;;;;;33.35;29.09;99210.31;5015219;28;20652;-90
2023/09/29 11:05:05;;;;;;;5.82;1.95;;;;;;;33.22;30.71;99205.00;5035374;28;20202;-89
2023/09/29 11:07:45;;;;;;;6.15;1.70;;;;;;;33.30;29.37;99213.69;5017269;28;20183;-90
2023/09/29 11:10:13;;;;;;;5.50;1.77;;;;;;;33.27;29.91;99211.44;5034953;28;20620;-87
2023/09/29 11:12:40;;;;;;;6.18;1.85;;;;;;;33.48;29.74;99206.59;5034902;28;20643;-89
2023/09/29 11:15:09;;;;;;;5.57;1.50;;;;;;;33.56;29.26;99211.78;5033859;28;20190;-89
2023/09/29 11:17:48;;;;;;;5.07;1.40;;;;;;;33.70;28.54;99205.13;5035050;28;20689;-89
2023/09/29 11:20:27;;;;;;;4.45;1.60;;;;;;;33.79;28.44;99217.34;5017113;28;20633;-88
2023/09/29 11:23:14;;;;;;;4.78;1.60;;;;;;;33.83;28.39;99197.63;5034755;28;20158;-89
2023/09/29 11:25:54;;;;;;;5.07;1.50;;;;;;;33.82;28.58;99195.16;5034856;28;20161;-89
2023/09/29 11:28:21;;;;;;;2.67;1.02;;;;;;;33.64;29.84;99197.88;5034160;28;20198;-89
2023/09/29 11:30:48;;;;;;;7.57;1.58;;;;;;;33.55;29.45;99191.03;5017291;28;20190;-89
2023/09/29 11:33:17;;;;;;;10.52;1.48;;;;;;;33.56;29.63;99188.16;5031015;28;20720;-89
2023/09/29 11:35:47;;;;;;;5.80;1.42;;;;;;;33.75;28.86;99183.53;5014943;28;20214;-90
2023/09/29 11:38:20;;;;;;;7.13;1.90;;;;;;;33.83;28.33;99184.03;5014931;28;20190;-89
2023/09/29 11:40:49;;;;;;;3.45;1.30;;;;;;;33.98;28.91;99179.03;5029605;28;20186;-89
2023/09/29 11:43:16;;;;;;;6.60;1.52;;;;;;;33.83;28.52;99180.50;5034640;28;20182;-89